createdAt,value
2022-12-22T00:00:38.967Z,64.67
2022-12-22T00:05:59.857Z,64.66
2022-12-22T00:11:20.540Z,64.95
2022-12-22T00:16:47.796Z,65.09
2022-12-22T00:22:08.451Z,65.49
2022-12-22T00:27:35.391Z,65.34
2022-12-22T00:32:57.260Z,65.68
2022-12-22T00:38:18.138Z,65.52
2022-12-22T00:43:38.351Z,65.59
2022-12-22T00:49:02.482Z,65.89
2022-12-22T00:54:28.248Z,66.00
2022-12-22T00:59:50.323Z,66.12
2022-12-22T01:05:14.297Z,66.29
2022-12-22T01:10:35.096Z,66.00
2022-12-22T01:15:57.430Z,66.26
2022-12-22T01:21:18.143Z,66.64
2022-12-22T01:26:39.649Z,66.79
2022-12-22T01:32:01.080Z,67.00
2022-12-22T01:37:21.791Z,66.74
2022-12-22T01:42:43.164Z,67.48
2022-12-22T01:48:03.947Z,66.84
2022-12-22T01:53:27.739Z,67.48
2022-12-22T01:58:54.550Z,67.41
2022-12-22T02:04:15.726Z,67.91
2022-12-22T02:10:01.440Z,67.78
2022-12-22T02:16:09.570Z,67.98
2022-12-22T02:21:35.736Z,68.25
2022-12-22T02:27:06.756Z,67.94
2022-12-22T02:32:27.492Z,68.24
2022-12-22T02:37:58.542Z,68.22
2022-12-22T02:43:32.071Z,68.27
2022-12-22T02:49:12.064Z,68.64
2022-12-22T02:54:35.513Z,68.24
2022-12-22T02:59:56.389Z,68.60
2022-12-22T03:05:16.787Z,68.51
2022-12-22T03:10:37.641Z,68.56
2022-12-22T03:15:58.129Z,68.28
2022-12-22T03:21:19.116Z,68.70
2022-12-22T03:26:21.143Z,68.41
2022-12-22T03:31:23.361Z,68.57
2022-12-22T03:36:25.617Z,68.52
2022-12-22T03:41:46.410Z,67.93
2022-12-22T03:46:48.635Z,67.92
2022-12-22T03:51:52.490Z,68.05
2022-12-22T03:56:55.022Z,67.90
2022-12-22T04:01:57.360Z,68.05
2022-12-22T04:06:59.813Z,67.43
2022-12-22T04:12:20.500Z,67.15
2022-12-22T04:17:22.717Z,67.65
2022-12-22T04:22:24.875Z,67.61
2022-12-22T04:27:27.042Z,67.46
2022-12-22T04:32:29.248Z,67.31
2022-12-22T04:37:31.538Z,67.35
2022-12-22T04:42:34.387Z,67.66
2022-12-22T04:47:36.722Z,67.53
2022-12-22T04:52:39.017Z,68.20
2022-12-22T04:57:41.352Z,67.64
2022-12-22T05:02:43.732Z,67.49
2022-12-22T05:07:46.061Z,67.48
2022-12-22T05:12:57.263Z,67.71
2022-12-22T05:18:00.863Z,67.60
2022-12-22T05:23:03.226Z,67.97
2022-12-22T05:28:05.548Z,67.71
2022-12-22T05:33:09.771Z,67.80
2022-12-22T05:38:14.839Z,67.58
2022-12-22T05:43:18.072Z,67.81
2022-12-22T05:48:27.375Z,68.16
2022-12-22T05:53:35.765Z,67.71
2022-12-22T05:58:39.394Z,67.82
2022-12-22T06:03:41.706Z,68.23
2022-12-22T06:08:43.879Z,68.36
2022-12-22T06:13:46.619Z,68.13
2022-12-22T06:18:48.985Z,68.47
2022-12-22T06:23:51.356Z,68.59
2022-12-22T06:28:55.169Z,68.18
2022-12-22T06:33:58.077Z,68.48
2022-12-22T06:39:00.343Z,68.38
2022-12-22T06:44:02.616Z,68.23
2022-12-22T06:49:06.110Z,68.25
2022-12-22T06:54:08.340Z,68.54
2022-12-22T06:59:10.598Z,68.25
2022-12-22T07:04:17.425Z,68.32
2022-12-22T07:09:19.774Z,68.42
2022-12-22T07:14:22.707Z,68.10
2022-12-22T07:19:27.883Z,68.27
2022-12-22T07:24:32.578Z,67.75
2022-12-22T07:29:36.770Z,68.05
2022-12-22T07:34:39.021Z,68.05
2022-12-22T07:39:41.343Z,67.76
2022-12-22T07:44:43.476Z,67.77
2022-12-22T07:50:04.194Z,67.67
2022-12-22T07:55:07.281Z,67.88
2022-12-22T08:00:12.624Z,67.50
2022-12-22T08:05:17.945Z,67.56
2022-12-22T08:10:21.986Z,67.38
2022-12-22T08:15:24.243Z,67.18
2022-12-22T08:20:33.766Z,66.98
2022-12-22T08:25:36.356Z,66.36
2022-12-22T08:30:38.900Z,66.35
2022-12-22T08:35:41.492Z,65.80
2022-12-22T08:40:45.782Z,65.88
2022-12-22T08:45:48.074Z,65.42
2022-12-22T08:50:50.315Z,65.53
2022-12-22T08:55:54.165Z,64.82
2022-12-22T09:01:03.562Z,65.24
2022-12-22T09:06:05.903Z,64.68
2022-12-22T09:11:08.253Z,64.53
2022-12-22T09:16:11.447Z,64.60
2022-12-22T09:21:13.888Z,64.11
2022-12-22T09:26:19.634Z,64.03
2022-12-22T09:31:24.401Z,63.97
2022-12-22T09:36:31.036Z,63.90
2022-12-22T09:41:37.791Z,63.67
2022-12-22T09:46:40.901Z,63.30
2022-12-22T09:51:49.984Z,62.99
2022-12-22T09:56:52.442Z,63.18
2022-12-22T10:02:33.973Z,62.71
2022-12-22T10:07:41.380Z,62.89
2022-12-22T10:12:43.713Z,62.21
2022-12-22T10:17:46.175Z,62.02
2022-12-22T10:23:05.645Z,61.61
2022-12-22T10:33:42.554Z,61.42
2022-12-22T10:39:12.033Z,61.28
2022-12-22T11:40:57.614Z,58.23
2022-12-22T11:46:16.909Z,58.09
2022-12-22T11:51:56.410Z,57.87
2022-12-22T11:57:11.351Z,57.64
2022-12-22T12:02:34.898Z,57.65
2022-12-22T12:07:46.822Z,56.00
2022-12-22T12:13:34.799Z,56.45
2022-12-22T12:18:42.218Z,55.55
2022-12-22T12:24:17.649Z,55.21
2022-12-22T12:29:24.258Z,55.21
2022-12-22T12:34:36.163Z,54.81
2022-12-22T12:39:47.015Z,54.84
2022-12-22T12:44:52.686Z,53.62
2022-12-22T12:49:56.234Z,54.48
2022-12-22T12:55:24.304Z,53.15
2022-12-22T13:00:34.979Z,52.10
2022-12-22T13:05:51.014Z,51.68
2022-12-22T13:10:55.881Z,50.33
2022-12-22T13:16:01.303Z,49.05
2022-12-22T13:21:50.287Z,48.78
2022-12-22T13:26:40.130Z,48.96
2022-12-22T13:31:51.720Z,47.95
2022-12-22T13:36:56.325Z,47.85
2022-12-22T13:41:58.761Z,47.98
2022-12-22T13:47:08.093Z,47.05
2022-12-22T13:52:15.601Z,46.31
2022-12-22T13:57:21.786Z,46.34
2022-12-22T14:02:24.091Z,46.12
2022-12-22T14:07:26.355Z,45.45
2022-12-22T14:12:31.860Z,45.17
2022-12-22T14:17:44.547Z,44.72
2022-12-22T14:23:02.321Z,44.65
2022-12-22T14:28:11.928Z,44.02
2022-12-22T14:33:34.341Z,43.80
2022-12-22T14:38:42.418Z,43.23
2022-12-22T14:43:50.413Z,42.58
2022-12-22T14:48:52.827Z,43.19
2022-12-22T14:54:00.397Z,44.19
2022-12-22T14:59:23.999Z,45.21
2022-12-22T15:04:39.380Z,46.60
2022-12-22T15:10:14.403Z,47.46
2022-12-22T15:15:18.140Z,48.72
2022-12-22T15:20:23.290Z,49.79
2022-12-22T15:25:26.470Z,50.72
2022-12-22T15:30:28.817Z,51.56
2022-12-22T15:35:35.733Z,53.02
2022-12-22T15:40:38.021Z,53.36
2022-12-22T15:45:41.452Z,53.92
2022-12-22T15:50:47.579Z,54.48
2022-12-22T15:55:53.670Z,55.26
2022-12-22T16:01:00.385Z,56.01
2022-12-22T16:06:02.634Z,56.39
2022-12-22T16:11:07.874Z,56.69
2022-12-22T16:16:10.195Z,57.07
2022-12-22T16:21:17.347Z,57.74
2022-12-22T16:26:21.785Z,58.12
2022-12-22T16:31:25.492Z,58.66
2022-12-22T16:36:31.076Z,58.89
2022-12-22T16:41:33.328Z,58.97
2022-12-22T16:46:39.502Z,59.69
2022-12-22T16:51:48.967Z,60.10
2022-12-22T16:56:52.403Z,60.25
2022-12-22T17:01:57.506Z,60.50
2022-12-22T17:07:07.039Z,60.62
2022-12-22T17:12:19.141Z,61.03
2022-12-22T17:17:30.953Z,61.34
2022-12-22T17:22:36.753Z,61.13
2022-12-22T17:27:39.308Z,61.39
2022-12-22T17:32:41.462Z,62.12
2022-12-22T17:37:45.677Z,62.29
2022-12-22T17:42:47.952Z,62.34
2022-12-22T17:47:50.310Z,62.39
2022-12-22T17:52:52.847Z,62.71
2022-12-22T17:57:55.680Z,63.02
2022-12-22T18:02:58.808Z,62.71
2022-12-22T18:08:01.322Z,62.85
2022-12-22T18:13:05.329Z,62.99
2022-12-22T18:18:15.059Z,63.33
2022-12-22T18:23:24.018Z,63.12
2022-12-22T18:28:26.183Z,63.28
2022-12-22T18:33:28.367Z,63.37
2022-12-22T18:38:33.053Z,63.46
2022-12-22T18:43:35.251Z,63.38
2022-12-22T18:48:37.457Z,63.76
2022-12-22T18:53:39.867Z,63.57
2022-12-22T18:58:47.026Z,63.48
2022-12-22T19:03:55.064Z,63.92
2022-12-22T19:08:57.266Z,64.21
2022-12-22T19:13:59.444Z,64.07
2022-12-22T19:19:02.049Z,64.08
2022-12-22T19:24:08.813Z,63.90
2022-12-22T19:29:13.745Z,64.45
2022-12-22T19:34:20.330Z,63.98
2022-12-22T19:39:22.613Z,64.29
2022-12-22T19:44:30.879Z,64.29
2022-12-22T19:49:33.275Z,64.31
2022-12-22T19:54:37.871Z,64.31
2022-12-22T19:59:46.884Z,64.03
2022-12-22T20:04:49.950Z,64.57
2022-12-22T20:09:54.526Z,64.15
2022-12-22T20:14:56.681Z,64.53
2022-12-22T20:19:59.239Z,64.82
2022-12-22T20:25:01.646Z,64.40
2022-12-22T20:30:04.386Z,64.92
2022-12-22T20:35:07.071Z,64.36
2022-12-22T20:40:28.652Z,64.81
2022-12-22T20:45:32.132Z,65.10
2022-12-22T20:50:34.941Z,64.78
2022-12-22T20:55:37.201Z,64.82
2022-12-22T21:00:39.472Z,65.12
2022-12-22T21:05:42.208Z,65.31
2022-12-22T21:10:46.312Z,65.82
2022-12-22T21:15:51.335Z,65.53
2022-12-22T21:20:59.626Z,66.07
2022-12-22T21:26:02.110Z,66.17
2022-12-22T21:31:05.160Z,65.75
2022-12-22T21:36:17.695Z,65.87
2022-12-22T21:41:40.300Z,65.85
2022-12-22T21:46:44.741Z,65.80
2022-12-22T21:51:48.356Z,66.03
2022-12-22T21:56:52.711Z,65.87
2022-12-22T22:01:56.759Z,66.26
2022-12-22T22:06:59.478Z,66.39
2022-12-22T22:12:26.401Z,66.16
2022-12-22T22:17:30.374Z,66.14
2022-12-22T22:22:32.543Z,66.24
2022-12-22T22:27:34.754Z,66.48
2022-12-22T22:32:38.008Z,66.11
2022-12-22T22:37:40.373Z,66.29
2022-12-22T22:42:42.732Z,66.07
2022-12-22T22:47:44.895Z,66.66
2022-12-22T22:52:47.481Z,66.43
2022-12-22T22:57:50.962Z,66.38
2022-12-22T23:02:53.841Z,66.25
2022-12-22T23:07:58.081Z,66.66
2022-12-22T23:13:00.296Z,66.44
2022-12-22T23:18:02.583Z,66.83
2022-12-22T23:23:04.834Z,66.74
2022-12-22T23:28:06.987Z,67.13
2022-12-22T23:33:09.220Z,66.58
2022-12-22T23:38:11.406Z,67.17
2022-12-22T23:43:14.035Z,66.76
2022-12-22T23:48:16.268Z,66.99
2022-12-22T23:53:18.497Z,66.95
2022-12-22T23:58:20.846Z,67.31
